sensor_id;sensor_type;location;lat;lon;timestamp;temperature;humidity
24402;DHT22;12539;48.808;11.292;2023-07-13T00:01:46;20.10;99.90
24402;DHT22;12539;48.808;11.292;2023-07-13T00:04:19;20.10;99.90
24402;DHT22;12539;48.808;11.292;2023-07-13T00:06:45;20.10;99.90
24402;DHT22;12539;48.808;11.292;2023-07-13T00:09:12;20.00;99.90
24402;DHT22;12539;48.808;11.292;2023-07-13T00:11:38;20.00;99.90
24402;DHT22;12539;48.808;11.292;2023-07-13T00:14:04;20.00;99.90
24402;DHT22;12539;48.808;11.292;2023-07-13T00:16:29;20.00;99.90
24402;DHT22;12539;48.808;11.292;2023-07-13T00:18:55;20.00;99.90
24402;DHT22;12539;48.808;11.292;2023-07-13T00:21:21;20.00;99.90
24402;DHT22;12539;48.808;11.292;2023-07-13T00:23:46;20.00;99.90
24402;DHT22;12539;48.808;11.292;2023-07-13T00:26:12;20.00;99.90
24402;DHT22;12539;48.808;11.292;2023-07-13T00:28:37;20.00;99.90
24402;DHT22;12539;48.808;11.292;2023-07-13T00:31:03;19.90;99.90
24402;DHT22;12539;48.808;11.292;2023-07-13T00:33:29;20.00;99.90
24402;DHT22;12539;48.808;11.292;2023-07-13T00:35:55;20.00;99.90
24402;DHT22;12539;48.808;11.292;2023-07-13T00:38:21;20.00;99.90
24402;DHT22;12539;48.808;11.292;2023-07-13T00:40:46;20.10;99.90
24402;DHT22;12539;48.808;11.292;2023-07-13T00:43:16;20.00;99.90
24402;DHT22;12539;48.808;11.292;2023-07-13T00:48:08;20.10;99.90
24402;DHT22;12539;48.808;11.292;2023-07-13T00:50:34;20.10;99.90
24402;DHT22;12539;48.808;11.292;2023-07-13T00:53:00;20.10;99.90
24402;DHT22;12539;48.808;11.292;2023-07-13T00:55:25;20.10;99.90
24402;DHT22;12539;48.808;11.292;2023-07-13T00:57:51;20.10;99.90
24402;DHT22;12539;48.808;11.292;2023-07-13T01:00:17;20.10;99.90
24402;DHT22;12539;48.808;11.292;2023-07-13T01:02:45;20.10;99.90
24402;DHT22;12539;48.808;11.292;2023-07-13T01:05:15;20.10;99.90
24402;DHT22;12539;48.808;11.292;2023-07-13T01:07:41;20.10;99.90
24402;DHT22;12539;48.808;11.292;2023-07-13T01:10:07;20.10;99.90
24402;DHT22;12539;48.808;11.292;2023-07-13T01:12:32;20.10;99.90
24402;DHT22;12539;48.808;11.292;2023-07-13T01:14:58;20.10;99.90
24402;DHT22;12539;48.808;11.292;2023-07-13T01:17:25;20.10;99.90
24402;DHT22;12539;48.808;11.292;2023-07-13T01:19:51;20.00;99.90
24402;DHT22;12539;48.808;11.292;2023-07-13T01:22:17;20.00;99.90
24402;DHT22;12539;48.808;11.292;2023-07-13T01:24:45;20.00;99.90
24402;DHT22;12539;48.808;11.292;2023-07-13T01:27:12;20.00;99.90
24402;DHT22;12539;48.808;11.292;2023-07-13T01:29:38;20.10;99.90
24402;DHT22;12539;48.808;11.292;2023-07-13T01:32:08;20.00;99.90
24402;DHT22;12539;48.808;11.292;2023-07-13T01:34:34;20.00;99.90
24402;DHT22;12539;48.808;11.292;2023-07-13T01:36:59;20.00;99.90
24402;DHT22;12539;48.808;11.292;2023-07-13T01:39:25;20.00;99.90
24402;DHT22;12539;48.808;11.292;2023-07-13T01:41:50;20.00;99.90
24402;DHT22;12539;48.808;11.292;2023-07-13T01:44:16;20.00;99.90
24402;DHT22;12539;48.808;11.292;2023-07-13T01:46:41;20.00;99.90
24402;DHT22;12539;48.808;11.292;2023-07-13T01:49:07;20.00;99.90
24402;DHT22;12539;48.808;11.292;2023-07-13T01:51:33;20.00;99.90
24402;DHT22;12539;48.808;11.292;2023-07-13T01:53:58;20.00;99.90
24402;DHT22;12539;48.808;11.292;2023-07-13T01:56:24;20.00;99.90
24402;DHT22;12539;48.808;11.292;2023-07-13T01:58:49;20.10;99.90
24402;DHT22;12539;48.808;11.292;2023-07-13T02:01:15;20.00;99.90
24402;DHT22;12539;48.808;11.292;2023-07-13T02:03:40;20.10;99.90
24402;DHT22;12539;48.808;11.292;2023-07-13T02:06:06;20.00;99.90
24402;DHT22;12539;48.808;11.292;2023-07-13T02:08:34;20.10;99.90
24402;DHT22;12539;48.808;11.292;2023-07-13T02:11:02;20.00;99.90
24402;DHT22;12539;48.808;11.292;2023-07-13T02:13:27;20.00;99.90
24402;DHT22;12539;48.808;11.292;2023-07-13T02:15:53;19.90;99.90
24402;DHT22;12539;48.808;11.292;2023-07-13T02:18:18;19.90;99.90
24402;DHT22;12539;48.808;11.292;2023-07-13T02:20:44;19.90;99.90
24402;DHT22;12539;48.808;11.292;2023-07-13T02:23:10;19.90;99.90
24402;DHT22;12539;48.808;11.292;2023-07-13T02:25:36;19.90;99.90
24402;DHT22;12539;48.808;11.292;2023-07-13T02:28:01;19.90;99.90
24402;DHT22;12539;48.808;11.292;2023-07-13T02:30:27;19.80;99.90
24402;DHT22;12539;48.808;11.292;2023-07-13T02:32:55;19.80;99.90
24402;DHT22;12539;48.808;11.292;2023-07-13T02:35:21;19.80;99.90
24402;DHT22;12539;48.808;11.292;2023-07-13T02:37:46;19.80;99.90
24402;DHT22;12539;48.808;11.292;2023-07-13T02:40:12;19.70;99.90
24402;DHT22;12539;48.808;11.292;2023-07-13T02:42:37;19.80;99.90
24402;DHT22;12539;48.808;11.292;2023-07-13T02:45:03;19.80;99.90
24402;DHT22;12539;48.808;11.292;2023-07-13T02:47:29;19.80;99.90
24402;DHT22;12539;48.808;11.292;2023-07-13T02:49:54;19.70;99.90
24402;DHT22;12539;48.808;11.292;2023-07-13T02:52:20;19.70;99.90
24402;DHT22;12539;48.808;11.292;2023-07-13T02:54:45;19.70;99.90
24402;DHT22;12539;48.808;11.292;2023-07-13T02:57:11;19.70;99.90
24402;DHT22;12539;48.808;11.292;2023-07-13T02:59:36;19.70;99.90
24402;DHT22;12539;48.808;11.292;2023-07-13T03:02:02;19.70;99.90
24402;DHT22;12539;48.808;11.292;2023-07-13T03:04:28;19.70;99.90
24402;DHT22;12539;48.808;11.292;2023-07-13T03:06:53;19.70;99.90
24402;DHT22;12539;48.808;11.292;2023-07-13T03:09:22;19.70;99.90
24402;DHT22;12539;48.808;11.292;2023-07-13T03:11:48;19.60;99.90
24402;DHT22;12539;48.808;11.292;2023-07-13T03:14:14;19.60;99.90
24402;DHT22;12539;48.808;11.292;2023-07-13T03:16:39;19.50;99.90
24402;DHT22;12539;48.808;11.292;2023-07-13T03:19:05;19.50;99.90
24402;DHT22;12539;48.808;11.292;2023-07-13T03:21:31;19.60;99.90
24402;DHT22;12539;48.808;11.292;2023-07-13T03:23:56;19.50;99.90
24402;DHT22;12539;48.808;11.292;2023-07-13T03:26:22;19.50;99.90
24402;DHT22;12539;48.808;11.292;2023-07-13T03:28:48;19.50;99.90
24402;DHT22;12539;48.808;11.292;2023-07-13T03:31:14;19.50;99.90
24402;DHT22;12539;48.808;11.292;2023-07-13T03:33:41;19.50;99.90
24402;DHT22;12539;48.808;11.292;2023-07-13T03:36:07;19.60;99.90
24402;DHT22;12539;48.808;11.292;2023-07-13T03:38:33;19.60;99.90
24402;DHT22;12539;48.808;11.292;2023-07-13T03:40:59;19.60;99.90
24402;DHT22;12539;48.808;11.292;2023-07-13T03:43:25;19.60;99.90
24402;DHT22;12539;48.808;11.292;2023-07-13T03:45:51;19.70;99.90
24402;DHT22;12539;48.808;11.292;2023-07-13T03:48:16;19.70;99.90
24402;DHT22;12539;48.808;11.292;2023-07-13T03:50:42;19.80;99.90
24402;DHT22;12539;48.808;11.292;2023-07-13T03:53:07;19.70;99.90
24402;DHT22;12539;48.808;11.292;2023-07-13T03:55:33;19.70;99.90
24402;DHT22;12539;48.808;11.292;2023-07-13T03:58:00;19.70;99.90
24402;DHT22;12539;48.808;11.292;2023-07-13T04:00:26;19.80;99.90
24402;DHT22;12539;48.808;11.292;2023-07-13T04:02:52;19.80;99.90
24402;DHT22;12539;48.808;11.292;2023-07-13T04:05:17;19.80;99.90
24402;DHT22;12539;48.808;11.292;2023-07-13T04:07:43;19.70;99.90
24402;DHT22;12539;48.808;11.292;2023-07-13T04:10:09;19.70;99.90
24402;DHT22;12539;48.808;11.292;2023-07-13T04:12:34;19.70;99.90
24402;DHT22;12539;48.808;11.292;2023-07-13T04:15:00;19.70;99.90
24402;DHT22;12539;48.808;11.292;2023-07-13T04:17:25;19.70;99.90
24402;DHT22;12539;48.808;11.292;2023-07-13T04:19:51;19.70;99.90
24402;DHT22;12539;48.808;11.292;2023-07-13T04:22:16;19.70;99.90
24402;DHT22;12539;48.808;11.292;2023-07-13T04:24:42;19.80;99.90
24402;DHT22;12539;48.808;11.292;2023-07-13T04:27:08;19.80;99.90
24402;DHT22;12539;48.808;11.292;2023-07-13T04:29:33;19.80;99.90
24402;DHT22;12539;48.808;11.292;2023-07-13T04:31:59;19.80;99.90
24402;DHT22;12539;48.808;11.292;2023-07-13T04:34:24;19.90;99.90
24402;DHT22;12539;48.808;11.292;2023-07-13T04:36:50;19.90;99.90
24402;DHT22;12539;48.808;11.292;2023-07-13T04:39:16;19.90;99.90
24402;DHT22;12539;48.808;11.292;2023-07-13T04:41:41;19.90;99.90
24402;DHT22;12539;48.808;11.292;2023-07-13T04:44:07;19.90;99.90
24402;DHT22;12539;48.808;11.292;2023-07-13T04:46:32;20.00;99.90
24402;DHT22;12539;48.808;11.292;2023-07-13T04:48:58;20.00;99.90
24402;DHT22;12539;48.808;11.292;2023-07-13T04:51:24;20.10;99.90
24402;DHT22;12539;48.808;11.292;2023-07-13T04:53:49;20.10;99.90
24402;DHT22;12539;48.808;11.292;2023-07-13T04:56:15;20.20;99.90
24402;DHT22;12539;48.808;11.292;2023-07-13T04:58:40;20.20;99.90
24402;DHT22;12539;48.808;11.292;2023-07-13T05:01:06;20.20;99.90
24402;DHT22;12539;48.808;11.292;2023-07-13T05:03:32;20.20;99.90
24402;DHT22;12539;48.808;11.292;2023-07-13T05:05:59;20.20;99.90
24402;DHT22;12539;48.808;11.292;2023-07-13T05:08:25;20.20;99.90
24402;DHT22;12539;48.808;11.292;2023-07-13T05:10:51;20.30;99.90
24402;DHT22;12539;48.808;11.292;2023-07-13T05:13:16;20.20;99.90
24402;DHT22;12539;48.808;11.292;2023-07-13T05:15:42;20.30;99.90
24402;DHT22;12539;48.808;11.292;2023-07-13T05:18:07;20.30;99.90
24402;DHT22;12539;48.808;11.292;2023-07-13T05:20:33;20.30;99.90
24402;DHT22;12539;48.808;11.292;2023-07-13T05:22:58;20.40;99.90
24402;DHT22;12539;48.808;11.292;2023-07-13T05:25:24;20.40;99.90
24402;DHT22;12539;48.808;11.292;2023-07-13T05:27:49;20.50;99.90
24402;DHT22;12539;48.808;11.292;2023-07-13T05:30:15;20.50;99.90
24402;DHT22;12539;48.808;11.292;2023-07-13T05:32:41;20.50;99.90
24402;DHT22;12539;48.808;11.292;2023-07-13T05:35:06;20.50;99.90
24402;DHT22;12539;48.808;11.292;2023-07-13T05:37:32;20.50;99.90
24402;DHT22;12539;48.808;11.292;2023-07-13T05:39:58;20.60;99.90
24402;DHT22;12539;48.808;11.292;2023-07-13T05:42:24;20.60;99.90
24402;DHT22;12539;48.808;11.292;2023-07-13T05:44:49;20.70;99.90
24402;DHT22;12539;48.808;11.292;2023-07-13T05:47:15;20.90;99.90
24402;DHT22;12539;48.808;11.292;2023-07-13T05:49:41;21.00;99.90
24402;DHT22;12539;48.808;11.292;2023-07-13T05:52:06;21.10;99.90
24402;DHT22;12539;48.808;11.292;2023-07-13T05:54:32;21.30;99.90
24402;DHT22;12539;48.808;11.292;2023-07-13T05:56:57;21.60;99.90
24402;DHT22;12539;48.808;11.292;2023-07-13T05:59:23;21.80;99.90
24402;DHT22;12539;48.808;11.292;2023-07-13T06:01:49;22.20;99.90
24402;DHT22;12539;48.808;11.292;2023-07-13T06:04:14;22.70;99.90
24402;DHT22;12539;48.808;11.292;2023-07-13T06:06:40;23.40;99.90
24402;DHT22;12539;48.808;11.292;2023-07-13T06:09:05;24.00;99.90
24402;DHT22;12539;48.808;11.292;2023-07-13T06:11:31;24.40;99.90
24402;DHT22;12539;48.808;11.292;2023-07-13T06:13:56;25.40;99.90
24402;DHT22;12539;48.808;11.292;2023-07-13T06:16:22;26.80;99.90
24402;DHT22;12539;48.808;11.292;2023-07-13T06:18:48;28.20;99.90
24402;DHT22;12539;48.808;11.292;2023-07-13T06:21:17;29.00;99.90
24402;DHT22;12539;48.808;11.292;2023-07-13T06:23:44;29.70;99.90
24402;DHT22;12539;48.808;11.292;2023-07-13T06:26:09;29.70;99.90
24402;DHT22;12539;48.808;11.292;2023-07-13T06:28:36;29.20;99.90
24402;DHT22;12539;48.808;11.292;2023-07-13T06:31:02;29.20;99.90
24402;DHT22;12539;48.808;11.292;2023-07-13T06:33:30;28.80;99.90
24402;DHT22;12539;48.808;11.292;2023-07-13T06:35:55;28.70;99.90
24402;DHT22;12539;48.808;11.292;2023-07-13T06:38:21;29.50;99.20
24402;DHT22;12539;48.808;11.292;2023-07-13T06:40:47;30.20;94.90
24402;DHT22;12539;48.808;11.292;2023-07-13T06:43:12;30.80;95.40
24402;DHT22;12539;48.808;11.292;2023-07-13T06:45:43;31.50;96.20
24402;DHT22;12539;48.808;11.292;2023-07-13T06:48:11;31.40;94.60
24402;DHT22;12539;48.808;11.292;2023-07-13T06:50:44;30.40;95.20
24402;DHT22;12539;48.808;11.292;2023-07-13T06:53:12;29.30;96.40
24402;DHT22;12539;48.808;11.292;2023-07-13T06:55:38;28.40;98.50
24402;DHT22;12539;48.808;11.292;2023-07-13T06:58:03;27.70;99.90
24402;DHT22;12539;48.808;11.292;2023-07-13T07:00:29;27.10;99.90
24402;DHT22;12539;48.808;11.292;2023-07-13T07:02:55;26.50;99.90
24402;DHT22;12539;48.808;11.292;2023-07-13T07:05:20;26.30;99.90
24402;DHT22;12539;48.808;11.292;2023-07-13T07:07:50;26.10;99.90
24402;DHT22;12539;48.808;11.292;2023-07-13T07:10:16;26.20;99.90
24402;DHT22;12539;48.808;11.292;2023-07-13T07:12:41;26.70;99.90
24402;DHT22;12539;48.808;11.292;2023-07-13T07:15:07;27.90;99.90
24402;DHT22;12539;48.808;11.292;2023-07-13T07:17:33;28.80;98.50
24402;DHT22;12539;48.808;11.292;2023-07-13T07:19:58;28.80;95.70
24402;DHT22;12539;48.808;11.292;2023-07-13T07:22:24;28.40;97.20
24402;DHT22;12539;48.808;11.292;2023-07-13T07:24:52;28.10;97.80
24402;DHT22;12539;48.808;11.292;2023-07-13T07:27:18;27.80;99.00
24402;DHT22;12539;48.808;11.292;2023-07-13T07:29:43;28.00;99.00
24402;DHT22;12539;48.808;11.292;2023-07-13T07:32:09;28.80;96.70
24402;DHT22;12539;48.808;11.292;2023-07-13T07:34:35;29.30;94.60
24402;DHT22;12539;48.808;11.292;2023-07-13T07:37:00;28.90;94.20
24402;DHT22;12539;48.808;11.292;2023-07-13T07:39:26;28.20;94.10
24402;DHT22;12539;48.808;11.292;2023-07-13T07:41:52;27.60;95.60
24402;DHT22;12539;48.808;11.292;2023-07-13T07:47:02;26.60;96.30
24402;DHT22;12539;48.808;11.292;2023-07-13T07:49:27;26.50;96.80
24402;DHT22;12539;48.808;11.292;2023-07-13T07:51:53;26.60;97.00
24402;DHT22;12539;48.808;11.292;2023-07-13T07:54:18;26.60;97.60
24402;DHT22;12539;48.808;11.292;2023-07-13T07:56:44;26.50;97.80
24402;DHT22;12539;48.808;11.292;2023-07-13T07:59:09;26.30;98.10
24402;DHT22;12539;48.808;11.292;2023-07-13T08:01:35;26.10;96.70
24402;DHT22;12539;48.808;11.292;2023-07-13T08:04:01;26.10;96.50
24402;DHT22;12539;48.808;11.292;2023-07-13T08:06:27;25.90;95.70
24402;DHT22;12539;48.808;11.292;2023-07-13T08:08:52;25.70;96.30
24402;DHT22;12539;48.808;11.292;2023-07-13T08:11:18;25.60;95.70
24402;DHT22;12539;48.808;11.292;2023-07-13T08:13:43;25.50;95.00
24402;DHT22;12539;48.808;11.292;2023-07-13T08:16:09;25.30;95.30
24402;DHT22;12539;48.808;11.292;2023-07-13T08:18:35;25.30;94.60
24402;DHT22;12539;48.808;11.292;2023-07-13T08:21:07;25.30;94.60
24402;DHT22;12539;48.808;11.292;2023-07-13T08:23:33;25.30;93.70
24402;DHT22;12539;48.808;11.292;2023-07-13T08:25:58;25.30;94.30
24402;DHT22;12539;48.808;11.292;2023-07-13T08:28:26;25.30;93.10
24402;DHT22;12539;48.808;11.292;2023-07-13T08:30:54;25.30;93.80
24402;DHT22;12539;48.808;11.292;2023-07-13T08:33:20;25.40;93.00
24402;DHT22;12539;48.808;11.292;2023-07-13T08:35:46;25.50;90.60
24402;DHT22;12539;48.808;11.292;2023-07-13T08:38:12;25.60;91.80
24402;DHT22;12539;48.808;11.292;2023-07-13T08:40:38;25.50;91.10
24402;DHT22;12539;48.808;11.292;2023-07-13T08:43:04;25.50;90.50
24402;DHT22;12539;48.808;11.292;2023-07-13T08:45:32;25.40;90.40
24402;DHT22;12539;48.808;11.292;2023-07-13T08:48:08;25.30;90.40
24402;DHT22;12539;48.808;11.292;2023-07-13T08:50:36;25.10;89.70
24402;DHT22;12539;48.808;11.292;2023-07-13T08:53:05;25.10;87.10
24402;DHT22;12539;48.808;11.292;2023-07-13T08:55:33;25.00;89.00
24402;DHT22;12539;48.808;11.292;2023-07-13T08:58:01;24.90;87.70
24402;DHT22;12539;48.808;11.292;2023-07-13T09:00:32;24.90;86.80
24402;DHT22;12539;48.808;11.292;2023-07-13T09:02:59;24.90;87.00
24402;DHT22;12539;48.808;11.292;2023-07-13T09:05:27;24.90;85.20
24402;DHT22;12539;48.808;11.292;2023-07-13T09:10:45;24.80;87.30
24402;DHT22;12539;48.808;11.292;2023-07-13T09:15:49;24.70;83.30
24402;DHT22;12539;48.808;11.292;2023-07-13T09:23:40;24.80;83.80
24402;DHT22;12539;48.808;11.292;2023-07-13T09:26:10;24.80;79.10
24402;DHT22;12539;48.808;11.292;2023-07-13T09:28:43;24.90;80.00
24402;DHT22;12539;48.808;11.292;2023-07-13T09:31:17;25.10;80.40
24402;DHT22;12539;48.808;11.292;2023-07-13T09:33:44;25.20;78.60
24402;DHT22;12539;48.808;11.292;2023-07-13T09:36:32;25.40;79.10
24402;DHT22;12539;48.808;11.292;2023-07-13T09:39:04;25.50;74.00
24402;DHT22;12539;48.808;11.292;2023-07-13T09:47:01;25.70;75.10
24402;DHT22;12539;48.808;11.292;2023-07-13T09:49:36;25.70;71.20
24402;DHT22;12539;48.808;11.292;2023-07-13T09:52:04;25.70;72.70
24402;DHT22;12539;48.808;11.292;2023-07-13T09:54:32;25.70;71.80
24402;DHT22;12539;48.808;11.292;2023-07-13T09:56:58;25.70;70.30
24402;DHT22;12539;48.808;11.292;2023-07-13T09:59:27;25.70;70.60
24402;DHT22;12539;48.808;11.292;2023-07-13T10:01:54;25.60;67.60
24402;DHT22;12539;48.808;11.292;2023-07-13T10:04:31;25.50;67.10
24402;DHT22;12539;48.808;11.292;2023-07-13T10:07:07;25.40;67.20
24402;DHT22;12539;48.808;11.292;2023-07-13T10:09:33;25.30;69.30
24402;DHT22;12539;48.808;11.292;2023-07-13T10:11:58;25.30;68.90
24402;DHT22;12539;48.808;11.292;2023-07-13T10:14:24;25.30;69.50
24402;DHT22;12539;48.808;11.292;2023-07-13T10:19:54;25.10;66.20
24402;DHT22;12539;48.808;11.292;2023-07-13T10:25:14;24.80;66.50
24402;DHT22;12539;48.808;11.292;2023-07-13T10:30:44;24.60;64.40
24402;DHT22;12539;48.808;11.292;2023-07-13T10:33:11;24.50;64.50
24402;DHT22;12539;48.808;11.292;2023-07-13T10:35:38;24.40;66.70
24402;DHT22;12539;48.808;11.292;2023-07-13T10:38:07;24.30;66.20
24402;DHT22;12539;48.808;11.292;2023-07-13T10:40:37;24.20;66.10
24402;DHT22;12539;48.808;11.292;2023-07-13T10:43:04;24.20;65.80
24402;DHT22;12539;48.808;11.292;2023-07-13T10:45:33;24.10;66.70
24402;DHT22;12539;48.808;11.292;2023-07-13T10:48:00;24.10;66.20
24402;DHT22;12539;48.808;11.292;2023-07-13T10:50:26;24.20;67.50
24402;DHT22;12539;48.808;11.292;2023-07-13T10:52:54;24.10;64.50
24402;DHT22;12539;48.808;11.292;2023-07-13T10:55:36;24.20;65.10
24402;DHT22;12539;48.808;11.292;2023-07-13T10:58:03;24.30;66.50
24402;DHT22;12539;48.808;11.292;2023-07-13T11:00:42;24.30;64.70
24402;DHT22;12539;48.808;11.292;2023-07-13T11:03:13;24.40;64.90
24402;DHT22;12539;48.808;11.292;2023-07-13T11:05:39;24.50;64.00
24402;DHT22;12539;48.808;11.292;2023-07-13T11:10:46;24.50;64.30
24402;DHT22;12539;48.808;11.292;2023-07-13T11:15:56;24.40;66.60
24402;DHT22;12539;48.808;11.292;2023-07-13T11:18:22;24.30;66.10
24402;DHT22;12539;48.808;11.292;2023-07-13T11:20:50;24.30;66.70
24402;DHT22;12539;48.808;11.292;2023-07-13T11:25:42;24.30;64.80
24402;DHT22;12539;48.808;11.292;2023-07-13T11:28:14;24.30;63.90
24402;DHT22;12539;48.808;11.292;2023-07-13T11:33:14;24.30;64.30
24402;DHT22;12539;48.808;11.292;2023-07-13T11:38:12;24.40;65.20
24402;DHT22;12539;48.808;11.292;2023-07-13T11:40:38;24.40;65.30
24402;DHT22;12539;48.808;11.292;2023-07-13T11:43:04;24.40;65.20
24402;DHT22;12539;48.808;11.292;2023-07-13T11:45:32;24.40;64.80
24402;DHT22;12539;48.808;11.292;2023-07-13T11:47:57;24.40;64.60
24402;DHT22;12539;48.808;11.292;2023-07-13T11:50:26;24.40;63.10
24402;DHT22;12539;48.808;11.292;2023-07-13T11:52:52;24.40;62.90
24402;DHT22;12539;48.808;11.292;2023-07-13T11:55:20;24.50;62.80
24402;DHT22;12539;48.808;11.292;2023-07-13T12:00:20;24.80;62.30
24402;DHT22;12539;48.808;11.292;2023-07-13T12:02:47;25.00;61.60
24402;DHT22;12539;48.808;11.292;2023-07-13T12:05:17;25.20;58.60
24402;DHT22;12539;48.808;11.292;2023-07-13T12:07:43;25.30;57.70
24402;DHT22;12539;48.808;11.292;2023-07-13T12:10:19;25.50;56.70
24402;DHT22;12539;48.808;11.292;2023-07-13T12:15:17;25.60;53.80
24402;DHT22;12539;48.808;11.292;2023-07-13T12:17:42;25.70;52.10
24402;DHT22;12539;48.808;11.292;2023-07-13T12:20:21;25.80;52.50
24402;DHT22;12539;48.808;11.292;2023-07-13T12:22:49;25.80;53.50
24402;DHT22;12539;48.808;11.292;2023-07-13T12:25:15;25.90;52.10
24402;DHT22;12539;48.808;11.292;2023-07-13T12:27:41;25.90;51.90
24402;DHT22;12539;48.808;11.292;2023-07-13T12:30:26;25.80;48.00
24402;DHT22;12539;48.808;11.292;2023-07-13T12:33:34;25.70;49.70
24402;DHT22;12539;48.808;11.292;2023-07-13T12:35:42;25.60;49.60
24402;DHT22;12539;48.808;11.292;2023-07-13T12:38:10;25.50;49.90
24402;DHT22;12539;48.808;11.292;2023-07-13T12:40:36;25.50;50.30
24402;DHT22;12539;48.808;11.292;2023-07-13T12:43:02;25.40;49.60
24402;DHT22;12539;48.808;11.292;2023-07-13T12:45:32;25.40;51.10
24402;DHT22;12539;48.808;11.292;2023-07-13T12:48:05;25.50;52.00
24402;DHT22;12539;48.808;11.292;2023-07-13T12:50:38;25.60;51.90
24402;DHT22;12539;48.808;11.292;2023-07-13T12:53:09;25.70;50.70
24402;DHT22;12539;48.808;11.292;2023-07-13T12:55:47;25.70;50.90
24402;DHT22;12539;48.808;11.292;2023-07-13T12:58:41;25.80;50.80
24402;DHT22;12539;48.808;11.292;2023-07-13T13:01:11;25.80;49.70
24402;DHT22;12539;48.808;11.292;2023-07-13T13:03:38;25.70;49.80
24402;DHT22;12539;48.808;11.292;2023-07-13T13:08:45;25.90;49.30
24402;DHT22;12539;48.808;11.292;2023-07-13T13:11:11;26.00;48.60
24402;DHT22;12539;48.808;11.292;2023-07-13T13:13:36;26.10;47.80
24402;DHT22;12539;48.808;11.292;2023-07-13T13:16:04;26.10;48.10
24402;DHT22;12539;48.808;11.292;2023-07-13T13:18:34;26.10;47.70
24402;DHT22;12539;48.808;11.292;2023-07-13T13:21:01;26.10;46.80
24402;DHT22;12539;48.808;11.292;2023-07-13T13:23:26;26.20;46.70
24402;DHT22;12539;48.808;11.292;2023-07-13T13:25:52;26.30;47.30
24402;DHT22;12539;48.808;11.292;2023-07-13T13:28:21;26.30;47.00
24402;DHT22;12539;48.808;11.292;2023-07-13T13:30:47;26.40;47.60
24402;DHT22;12539;48.808;11.292;2023-07-13T13:33:14;26.40;47.80
24402;DHT22;12539;48.808;11.292;2023-07-13T13:35:40;26.50;47.50
24402;DHT22;12539;48.808;11.292;2023-07-13T13:38:11;26.60;46.60
24402;DHT22;12539;48.808;11.292;2023-07-13T13:40:36;26.60;46.50
24402;DHT22;12539;48.808;11.292;2023-07-13T13:43:04;26.60;46.80
24402;DHT22;12539;48.808;11.292;2023-07-13T13:45:30;26.50;46.30
24402;DHT22;12539;48.808;11.292;2023-07-13T13:47:56;26.40;45.80
24402;DHT22;12539;48.808;11.292;2023-07-13T13:50:22;26.30;44.90
24402;DHT22;12539;48.808;11.292;2023-07-13T13:52:47;26.40;46.00
24402;DHT22;12539;48.808;11.292;2023-07-13T13:55:14;26.40;45.30
24402;DHT22;12539;48.808;11.292;2023-07-13T13:57:40;26.40;44.20
24402;DHT22;12539;48.808;11.292;2023-07-13T14:00:05;26.50;46.60
24402;DHT22;12539;48.808;11.292;2023-07-13T14:02:31;26.50;45.20
24402;DHT22;12539;48.808;11.292;2023-07-13T14:04:58;26.60;44.80
24402;DHT22;12539;48.808;11.292;2023-07-13T14:07:24;26.60;44.90
24402;DHT22;12539;48.808;11.292;2023-07-13T14:09:51;26.60;44.20
24402;DHT22;12539;48.808;11.292;2023-07-13T14:12:17;26.60;45.10
24402;DHT22;12539;48.808;11.292;2023-07-13T14:14:43;26.50;45.40
24402;DHT22;12539;48.808;11.292;2023-07-13T14:17:21;26.40;45.70
24402;DHT22;12539;48.808;11.292;2023-07-13T14:19:51;26.30;44.30
24402;DHT22;12539;48.808;11.292;2023-07-13T14:22:17;26.20;45.10
24402;DHT22;12539;48.808;11.292;2023-07-13T14:24:43;26.10;44.30
24402;DHT22;12539;48.808;11.292;2023-07-13T14:27:12;26.10;43.50
24402;DHT22;12539;48.808;11.292;2023-07-13T14:29:38;26.00;44.30
24402;DHT22;12539;48.808;11.292;2023-07-13T14:32:04;26.00;44.20
24402;DHT22;12539;48.808;11.292;2023-07-13T14:34:30;26.00;45.10
24402;DHT22;12539;48.808;11.292;2023-07-13T14:36:55;26.10;45.00
24402;DHT22;12539;48.808;11.292;2023-07-13T14:39:22;26.10;43.90
24402;DHT22;12539;48.808;11.292;2023-07-13T14:41:52;26.20;43.80
24402;DHT22;12539;48.808;11.292;2023-07-13T14:44:20;26.20;43.10
24402;DHT22;12539;48.808;11.292;2023-07-13T14:46:46;26.30;43.80
24402;DHT22;12539;48.808;11.292;2023-07-13T14:49:16;26.30;43.10
24402;DHT22;12539;48.808;11.292;2023-07-13T14:51:47;26.40;43.50
24402;DHT22;12539;48.808;11.292;2023-07-13T14:54:13;26.30;43.20
24402;DHT22;12539;48.808;11.292;2023-07-13T14:56:38;26.40;41.50
24402;DHT22;12539;48.808;11.292;2023-07-13T14:59:04;26.40;42.60
24402;DHT22;12539;48.808;11.292;2023-07-13T15:01:30;26.40;42.90
24402;DHT22;12539;48.808;11.292;2023-07-13T15:03:56;26.40;41.40
24402;DHT22;12539;48.808;11.292;2023-07-13T15:06:25;26.40;42.80
24402;DHT22;12539;48.808;11.292;2023-07-13T15:08:51;26.30;42.90
24402;DHT22;12539;48.808;11.292;2023-07-13T15:11:18;26.30;42.30
24402;DHT22;12539;48.808;11.292;2023-07-13T15:13:44;26.30;43.20
24402;DHT22;12539;48.808;11.292;2023-07-13T15:16:19;26.30;42.60
24402;DHT22;12539;48.808;11.292;2023-07-13T15:18:46;26.30;43.20
24402;DHT22;12539;48.808;11.292;2023-07-13T15:21:14;26.30;41.60
24402;DHT22;12539;48.808;11.292;2023-07-13T15:23:40;26.30;41.40
24402;DHT22;12539;48.808;11.292;2023-07-13T15:26:10;26.30;42.60
24402;DHT22;12539;48.808;11.292;2023-07-13T15:28:36;26.30;42.00
24402;DHT22;12539;48.808;11.292;2023-07-13T15:31:04;26.30;42.30
24402;DHT22;12539;48.808;11.292;2023-07-13T15:33:33;26.10;42.10
24402;DHT22;12539;48.808;11.292;2023-07-13T15:36:01;26.00;42.80
24402;DHT22;12539;48.808;11.292;2023-07-13T15:38:30;25.90;42.80
24402;DHT22;12539;48.808;11.292;2023-07-13T15:40:56;25.90;42.20
24402;DHT22;12539;48.808;11.292;2023-07-13T15:43:22;25.80;42.70
24402;DHT22;12539;48.808;11.292;2023-07-13T15:45:48;25.80;42.80
24402;DHT22;12539;48.808;11.292;2023-07-13T15:48:21;25.70;42.50
24402;DHT22;12539;48.808;11.292;2023-07-13T15:50:53;25.60;43.00
24402;DHT22;12539;48.808;11.292;2023-07-13T15:53:23;25.50;41.60
24402;DHT22;12539;48.808;11.292;2023-07-13T15:55:49;25.40;42.40
24402;DHT22;12539;48.808;11.292;2023-07-13T15:58:15;25.30;42.50
24402;DHT22;12539;48.808;11.292;2023-07-13T16:00:41;25.30;43.20
24402;DHT22;12539;48.808;11.292;2023-07-13T16:03:07;25.30;43.50
24402;DHT22;12539;48.808;11.292;2023-07-13T16:05:33;25.40;43.00